Tropical Cyclones
[Index]
Main Index Home Page Stock Weather Photos Extreme Storms Discussion Storm News and Storm Chasing Reports Tropical Cyclones / Hurricanes / Typhoons Weather Data and Links Wild Fires / Bushfires Weather Observation Techniques Weather Picture Catalogue Tornado Pictures and Reports Stock Video Footage and DVDs for sale
Season 1998-1999 Tropical Cyclone 199926 Track Map
Season 1998-1999 Summaries: [BoM-AU] [JTWC-AU] [JTWC-SIO] [JTWC-SPAC] [JTWC-SH]
<<- Previous TC | JTWC 1998-1999 Season | Next TC ->>

click for intensity scale information  Lat/long Grid: Show Hide

 Date Labels: Show Hide

Joint Typhoon Warning Centre Cyclone Data

Name: 199926

03 Mar 1999 00:00 UTC to 10 Mar 1999 18:00 UTC

    date/time    lat    long     hPa   cat  kts
1999-03-03 00   12.0   121.4                  25          
1999-03-03 06   12.2   120.6                  25          
1999-03-03 12   12.5   120.0                  25          
1999-03-03 18   12.8   119.2                  25          
1999-03-04 00   13.3   117.9                  25          
1999-03-04 06   13.8   116.3                  25          
1999-03-04 12   14.0   114.7                  25          
1999-03-04 18   14.4   113.4                  25          
1999-03-05 00   14.5   111.6                  25          
1999-03-05 06   14.2   109.6                  25          
1999-03-05 12   13.8   107.8                  25          
1999-03-05 18   13.7   106.0                  25          
1999-03-06 00   13.9   104.4                  25          
1999-03-06 06   14.2   102.8                  25          
1999-03-06 12   14.1   101.6                  25          
1999-03-06 18   14.8    99.9                  25          
1999-03-07 00   14.9    98.5                  30          
1999-03-07 06   14.9    97.2                  30          
1999-03-07 12   14.6    96.0                  30          
1999-03-07 18   14.5    94.7                  30          
1999-03-08 00   14.8    93.8                  35          
1999-03-08 06   14.8    92.0                  30          
1999-03-08 12   14.5    90.2                  30          
1999-03-08 18   14.5    88.5                  30          
1999-03-09 00   13.9    86.4                  30          
1999-03-09 06   13.3    84.7                  30          
1999-03-09 12   13.1    82.7                  30          
1999-03-09 18   12.8    80.9                  25          
1999-03-10 00   12.5    78.6                  25          
1999-03-10 06   12.4    76.0                  25          
1999-03-10 12   12.7    73.0                  25          
1999-03-10 18   13.0    70.9                  25          
Winds are 1-min average.

Tropical cyclone tracks developed by Michael Bath using data from the Joint Typhoon Warning Centre Best Tracks and Google Maps.


[Australian Severe Weather index] [Copyright Notice] [Email Contacts] [Search This Site] [Privacy Policy]
Document: tropical_cyclone_199926.htm Updated: 18 September 2016